PWSweather.com
Personal Weather Stations
Station Observations
KNJSTAFF6
Village Harbor, Beach Haven West, Manahawkin, NJ 08050

Village Harbor, Beach Haven WestManahawkin, NJ 08050

Lat: 39.67889410559905, Lon: -74.24244902883606

Elevation: 15

Station Type: Oregon Scientific WMR88A

Latest ConditionsUpdated 12:53:00 AM EDT Wednesday, Apr 24, 2019
Currently Today's Max Today's Min Today's Average
Temperature 60.6°F15.9°C 62.4°F16.9°C 60.6°F15.9°C 61.3°F16.3°C
Dew Point 53.4°F11.9°C 53.4°F11.9°C 52.4°F11.3°C 52.8°F11.6°C
Winds 5.0 mph S8.0 kmh S 7.4 mph -11.9 kmh - - 5.0 mph 8.0 kmh
Wind Gusts 9.8 mph15.8 kmh 12.5 mph20.1 kmh - -
Humidity 77% 77% 71% 74%
Pressure 29.62 in1003.0 mb 29.65 in1004.1 mb 29.62 in1003.0 mb -
Hour Temp Dew Point Humidity Winds Wind Gusts Pressure Precip Precip Rate Daily Precip Total
12:53 AM 60.6°F15.9°C 53.4°F11.9°C 77% 5.0 mph S8.0 kmh S 9.8 mph15.8 kmh 29.62 in1003.0 mb 0.00 in0.0 mm 0.00 in0.0 mm 0.00 in0.0 mm
12:52 AM 60.6°F15.9°C 53.4°F11.9°C 77% 5.0 mph S8.0 kmh S 9.8 mph15.8 kmh 29.62 in1003.0 mb 0.00 in0.0 mm 0.00 in0.0 mm 0.00 in0.0 mm
12:51 AM 60.6°F15.9°C 53.4°F11.9°C 77% 4.9 mph S7.9 kmh S 9.8 mph15.8 kmh 29.62 in1003.0 mb 0.00 in0.0 mm 0.00 in0.0 mm 0.00 in0.0 mm
12:50 AM 60.6°F15.9°C 53.4°F11.9°C 77% 4.9 mph S7.9 kmh S 9.8 mph15.8 kmh 29.62 in1003.0 mb 0.00 in0.0 mm 0.00 in0.0 mm 0.00 in0.0 mm
12:49 AM 60.6°F15.9°C 53.0°F11.7°C 76% 4.9 mph S7.9 kmh S 9.8 mph15.8 kmh 29.62 in1003.0 mb 0.00 in0.0 mm 0.00 in0.0 mm 0.00 in0.0 mm
12:48 AM 60.6°F15.9°C 53.0°F11.7°C 76% 5.0 mph S8.0 kmh S 8.7 mph14.0 kmh 29.62 in1003.0 mb 0.00 in0.0 mm 0.00 in0.0 mm 0.00 in0.0 mm
12:47 AM 60.6°F15.9°C 53.0°F11.7°C 76% 5.3 mph S8.5 kmh S 8.7 mph14.0 kmh 29.62 in1003.0 mb 0.00 in0.0 mm 0.00 in0.0 mm 0.00 in0.0 mm
12:46 AM 60.8°F16.0°C 53.2°F11.8°C 76% 5.4 mph S8.7 kmh S 8.7 mph14.0 kmh 29.62 in1003.0 mb 0.00 in0.0 mm 0.00 in0.0 mm 0.00 in0.0 mm
12:45 AM 60.8°F16.0°C 53.2°F11.8°C 76% 5.4 mph SSW8.7 kmh SSW 8.7 mph14.0 kmh 29.62 in1003.0 mb 0.00 in0.0 mm 0.00 in0.0 mm 0.00 in0.0 mm
12:44 AM 60.8°F16.0°C 53.2°F11.8°C 76% 5.7 mph SSW9.2 kmh SSW 8.7 mph14.0 kmh 29.62 in1003.0 mb 0.00 in0.0 mm 0.00 in0.0 mm 0.00 in0.0 mm
12:43 AM 60.8°F16.0°C 53.2°F11.8°C 76% 5.9 mph S9.5 kmh S 8.7 mph14.0 kmh 29.62 in1003.0 mb 0.00 in0.0 mm 0.00 in0.0 mm 0.00 in0.0 mm
12:42 AM 60.8°F16.0°C 52.8°F11.6°C 75% 5.6 mph S9.0 kmh S 8.5 mph13.7 kmh 29.62 in1003.0 mb 0.00 in0.0 mm 0.00 in0.0 mm 0.00 in0.0 mm
12:41 AM 60.8°F16.0°C 52.8°F11.6°C 75% 5.6 mph S9.0 kmh S 8.5 mph13.7 kmh 29.62 in1003.0 mb 0.00 in0.0 mm 0.00 in0.0 mm 0.00 in0.0 mm
12:40 AM 60.8°F16.0°C 52.8°F11.6°C 75% 5.6 mph S9.0 kmh S 8.5 mph13.7 kmh 29.62 in1003.0 mb 0.00 in0.0 mm 0.00 in0.0 mm 0.00 in0.0 mm
12:39 AM 60.8°F16.0°C 52.8°F11.6°C 75% 5.6 mph S9.0 kmh S 8.5 mph13.7 kmh 29.65 in1004.1 mb 0.00 in0.0 mm 0.00 in0.0 mm 0.00 in0.0 mm
12:38 AM 61.0°F16.1°C 53.0°F11.7°C 75% 5.3 mph S8.5 kmh S 7.6 mph12.2 kmh 29.65 in1004.1 mb 0.00 in0.0 mm 0.00 in0.0 mm 0.00 in0.0 mm
12:37 AM 61.0°F16.1°C 53.0°F11.7°C 75% 5.4 mph S8.7 kmh S 7.4 mph11.9 kmh 29.65 in1004.1 mb 0.00 in0.0 mm 0.00 in0.0 mm 0.00 in0.0 mm
12:36 AM 61.0°F16.1°C 52.6°F11.4°C 74% 5.5 mph S8.9 kmh S 7.4 mph11.9 kmh 29.65 in1004.1 mb 0.00 in0.0 mm 0.00 in0.0 mm 0.00 in0.0 mm
12:35 AM 61.0°F16.1°C 52.6°F11.4°C 74% 5.4 mph SSE8.7 kmh SSE 7.4 mph11.9 kmh 29.65 in1004.1 mb 0.00 in0.0 mm 0.00 in0.0 mm 0.00 in0.0 mm
12:34 AM 61.0°F16.1°C 52.6°F11.4°C 74% 5.6 mph SSE9.0 kmh SSE 7.4 mph11.9 kmh 29.65 in1004.1 mb 0.00 in0.0 mm 0.00 in0.0 mm 0.00 in0.0 mm
12:33 AM 61.0°F16.1°C 52.6°F11.4°C 74% 5.4 mph SSE8.7 kmh SSE 7.4 mph11.9 kmh 29.65 in1004.1 mb 0.00 in0.0 mm 0.00 in0.0 mm 0.00 in0.0 mm
12:32 AM 61.0°F16.1°C 52.6°F11.4°C 74% 4.7 mph S7.6 kmh S 7.4 mph11.9 kmh 29.65 in1004.1 mb 0.00 in0.0 mm 0.00 in0.0 mm 0.00 in0.0 mm
12:31 AM 61.2°F16.2°C 52.8°F11.6°C 74% 4.6 mph S7.4 kmh S 7.4 mph11.9 kmh 29.65 in1004.1 mb 0.00 in0.0 mm 0.00 in0.0 mm 0.00 in0.0 mm
12:30 AM 61.2°F16.2°C 52.8°F11.6°C 74% 4.5 mph S7.2 kmh S 7.4 mph11.9 kmh 29.65 in1004.1 mb 0.00 in0.0 mm 0.00 in0.0 mm 0.00 in0.0 mm
12:29 AM 61.2°F16.2°C 52.4°F11.3°C 73% 4.4 mph S7.1 kmh S 7.4 mph11.9 kmh 29.65 in1004.1 mb 0.00 in0.0 mm 0.00 in0.0 mm 0.00 in0.0 mm
12:28 AM 61.2°F16.2°C 52.4°F11.3°C 73% 4.3 mph S6.9 kmh S 7.4 mph11.9 kmh 29.65 in1004.1 mb 0.00 in0.0 mm 0.00 in0.0 mm 0.00 in0.0 mm
12:27 AM 61.2°F16.2°C 52.4°F11.3°C 73% 3.9 mph S6.3 kmh S 6.5 mph10.5 kmh 29.65 in1004.1 mb 0.00 in0.0 mm 0.00 in0.0 mm 0.00 in0.0 mm
12:26 AM 61.2°F16.2°C 52.4°F11.3°C 73% 4.1 mph S6.6 kmh S 6.5 mph10.5 kmh 29.65 in1004.1 mb 0.00 in0.0 mm 0.00 in0.0 mm 0.00 in0.0 mm
12:24 AM 61.2°F16.2°C 52.4°F11.3°C 73% 3.7 mph SSW6.0 kmh SSW 6.5 mph10.5 kmh 29.65 in1004.1 mb 0.00 in0.0 mm 0.00 in0.0 mm 0.00 in0.0 mm
12:23 AM 61.2°F16.2°C 52.4°F11.3°C 73% 3.6 mph SSW5.8 kmh SSW 6.5 mph10.5 kmh 29.65 in1004.1 mb 0.00 in0.0 mm 0.00 in0.0 mm 0.00 in0.0 mm
12:22 AM 61.3°F16.3°C 52.6°F11.4°C 73% 3.6 mph SSW5.8 kmh SSW 6.5 mph10.5 kmh 29.65 in1004.1 mb 0.00 in0.0 mm 0.00 in0.0 mm 0.00 in0.0 mm
12:21 AM 61.3°F16.3°C 52.6°F11.4°C 73% 3.7 mph SSW6.0 kmh SSW 6.5 mph10.5 kmh 29.65 in1004.1 mb 0.00 in0.0 mm 0.00 in0.0 mm 0.00 in0.0 mm
12:20 AM 61.3°F16.3°C 52.6°F11.4°C 73% 3.8 mph SSW6.1 kmh SSW 6.5 mph10.5 kmh 29.65 in1004.1 mb 0.00 in0.0 mm 0.00 in0.0 mm 0.00 in0.0 mm
12:19 AM 61.3°F16.3°C 52.6°F11.4°C 73% 4.0 mph SSW6.4 kmh SSW 7.2 mph11.6 kmh 29.65 in1004.1 mb 0.00 in0.0 mm 0.00 in0.0 mm 0.00 in0.0 mm
12:18 AM 61.5°F16.4°C 52.8°F11.6°C 73% 4.1 mph SSW6.6 kmh SSW 7.2 mph11.6 kmh 29.65 in1004.1 mb 0.00 in0.0 mm 0.00 in0.0 mm 0.00 in0.0 mm
12:17 AM 61.5°F16.4°C 52.8°F11.6°C 73% 4.2 mph SSW6.8 kmh SSW 7.2 mph11.6 kmh 29.65 in1004.1 mb 0.00 in0.0 mm 0.00 in0.0 mm 0.00 in0.0 mm
12:16 AM 61.5°F16.4°C 52.4°F11.3°C 72% 4.0 mph S6.4 kmh S 7.2 mph11.6 kmh 29.65 in1004.1 mb 0.00 in0.0 mm 0.00 in0.0 mm 0.00 in0.0 mm
12:15 AM 61.5°F16.4°C 52.4°F11.3°C 72% 4.0 mph SSW6.4 kmh SSW 7.2 mph11.6 kmh 29.65 in1004.1 mb 0.00 in0.0 mm 0.00 in0.0 mm 0.00 in0.0 mm
12:14 AM 61.5°F16.4°C 52.4°F11.3°C 72% 4.3 mph SSW6.9 kmh SSW 9.6 mph15.4 kmh 29.65 in1004.1 mb 0.00 in0.0 mm 0.00 in0.0 mm 0.00 in0.0 mm
12:13 AM 61.7°F16.5°C 52.6°F11.4°C 72% 4.7 mph SSW7.6 kmh SSW 9.6 mph15.4 kmh 29.65 in1004.1 mb 0.00 in0.0 mm 0.00 in0.0 mm 0.00 in0.0 mm
12:12 AM 61.7°F16.5°C 52.6°F11.4°C 72% 5.0 mph SSW8.0 kmh SSW 9.6 mph15.4 kmh 29.65 in1004.1 mb 0.00 in0.0 mm 0.00 in0.0 mm 0.00 in0.0 mm
12:11 AM 61.7°F16.5°C 52.6°F11.4°C 72% 5.4 mph S8.7 kmh S 9.6 mph15.4 kmh 29.65 in1004.1 mb 0.00 in0.0 mm 0.00 in0.0 mm 0.00 in0.0 mm
12:10 AM 61.7°F16.5°C 52.6°F11.4°C 72% 5.2 mph SSW8.4 kmh SSW 9.6 mph15.4 kmh 29.65 in1004.1 mb 0.00 in0.0 mm 0.00 in0.0 mm 0.00 in0.0 mm
12:09 AM 61.7°F16.5°C 52.6°F11.4°C 72% 5.0 mph S8.0 kmh S 9.6 mph15.4 kmh 29.65 in1004.1 mb 0.00 in0.0 mm 0.00 in0.0 mm 0.00 in0.0 mm
12:08 AM 61.9°F16.6°C 52.8°F11.6°C 72% 5.3 mph S8.5 kmh S 9.6 mph15.4 kmh 29.65 in1004.1 mb 0.00 in0.0 mm 0.00 in0.0 mm 0.00 in0.0 mm
12:07 AM 61.9°F16.6°C 52.8°F11.6°C 72% 5.2 mph S8.4 kmh S 9.6 mph15.4 kmh 29.65 in1004.1 mb 0.00 in0.0 mm 0.00 in0.0 mm 0.00 in0.0 mm
12:06 AM 62.1°F16.7°C 52.9°F11.6°C 72% 5.6 mph SSW9.0 kmh SSW 9.6 mph15.4 kmh 29.65 in1004.1 mb 0.00 in0.0 mm 0.00 in0.0 mm 0.00 in0.0 mm
12:05 AM 62.1°F16.7°C 52.9°F11.6°C 72% 6.2 mph SSW10.0 kmh SSW 9.6 mph15.4 kmh 29.65 in1004.1 mb 0.00 in0.0 mm 0.00 in0.0 mm 0.00 in0.0 mm
12:04 AM 62.1°F16.7°C 52.9°F11.6°C 72% 7.0 mph SSW11.3 kmh SSW 10.1 mph16.3 kmh 29.65 in1004.1 mb 0.00 in0.0 mm 0.00 in0.0 mm 0.00 in0.0 mm
12:03 AM 62.2°F16.8°C 52.7°F11.5°C 71% 6.2 mph SSW10.0 kmh SSW 10.1 mph16.3 kmh 29.65 in1004.1 mb 0.00 in0.0 mm 0.00 in0.0 mm 0.00 in0.0 mm
12:02 AM 62.2°F16.8°C 52.7°F11.5°C 71% 6.3 mph SSW10.1 kmh SSW 10.1 mph16.3 kmh 29.65 in1004.1 mb 0.00 in0.0 mm 0.00 in0.0 mm 0.00 in0.0 mm
12:01 AM 62.2°F16.8°C 52.7°F11.5°C 71% 6.8 mph SSW10.9 kmh SSW 12.5 mph20.1 kmh 29.65 in1004.1 mb 0.00 in0.0 mm 0.00 in0.0 mm 0.00 in0.0 mm
12:00 AM 62.4°F16.9°C 52.9°F11.6°C 71% 7.4 mph SSW11.9 kmh SSW 12.5 mph20.1 kmh 29.65 in1004.1 mb 0.00 in0.0 mm 0.00 in0.0 mm 0.00 in0.0 mm